createdAt,value
2018-07-06T00:02:34.030Z,7.90
2018-07-06T00:05:12.588Z,7.93
2018-07-06T00:07:51.014Z,8.27
2018-07-06T00:10:29.531Z,8.83
2018-07-06T00:13:08.120Z,8.97
2018-07-06T00:15:46.511Z,8.87
2018-07-06T00:18:24.859Z,9.60
2018-07-06T00:21:03.220Z,9.57
2018-07-06T00:23:41.739Z,9.57
2018-07-06T00:26:20.244Z,9.57
2018-07-06T00:28:58.915Z,9.13
2018-07-06T00:31:37.364Z,9.97
2018-07-06T00:34:15.759Z,8.87
2018-07-06T00:36:54.367Z,8.23
2018-07-06T00:39:32.944Z,10.13
2018-07-06T00:42:11.516Z,8.83
2018-07-06T00:44:50.052Z,8.70
2018-07-06T00:47:28.560Z,9.07
2018-07-06T00:50:07.051Z,8.07
2018-07-06T00:52:45.352Z,8.53
2018-07-06T00:55:23.837Z,8.20
2018-07-06T00:58:02.259Z,7.50
2018-07-06T01:00:40.542Z,7.97
2018-07-06T01:03:19.072Z,7.97
2018-07-06T01:05:57.516Z,6.60
2018-07-06T01:08:36.123Z,7.93
2018-07-06T01:11:14.611Z,6.93
2018-07-06T01:13:53.088Z,6.03
2018-07-06T01:16:31.507Z,6.50
2018-07-06T01:19:10.029Z,5.77
2018-07-06T01:21:48.517Z,6.10
2018-07-06T01:24:27.056Z,6.33
2018-07-06T01:27:05.484Z,6.10
2018-07-06T01:29:44.092Z,6.27
2018-07-06T01:32:22.715Z,6.20
2018-07-06T01:35:01.240Z,6.40
2018-07-06T01:37:39.687Z,7.00
2018-07-06T01:40:18.167Z,5.33
2018-07-06T01:42:56.632Z,5.80
2018-07-06T01:45:35.095Z,5.27
2018-07-06T01:48:13.531Z,6.00
2018-07-06T01:50:52.033Z,5.60
2018-07-06T01:53:30.627Z,6.50
2018-07-06T01:56:09.180Z,7.30
2018-07-06T01:58:47.750Z,7.00
2018-07-06T02:01:26.088Z,6.83
2018-07-06T02:04:04.703Z,7.47
2018-07-06T02:06:43.201Z,8.45
2018-07-06T02:09:24.047Z,8.90
2018-07-06T02:12:02.480Z,9.30
2018-07-06T02:14:40.991Z,7.63
2018-07-06T02:17:19.383Z,6.93
2018-07-06T02:19:57.895Z,9.07
2018-07-06T02:22:36.427Z,7.90
2018-07-06T02:25:14.867Z,8.27
2018-07-06T02:27:53.423Z,9.10
2018-07-06T02:30:31.987Z,8.70
2018-07-06T02:33:10.532Z,9.87
2018-07-06T02:35:48.984Z,9.30
2018-07-06T02:38:27.342Z,11.15
2018-07-06T02:41:05.733Z,10.67
2018-07-06T02:43:44.223Z,10.33
2018-07-06T02:46:22.727Z,9.73
2018-07-06T02:49:01.080Z,12.98
2018-07-06T02:51:39.707Z,12.67
2018-07-06T02:54:18.295Z,12.63
2018-07-06T02:56:56.807Z,13.40
2018-07-06T02:59:35.407Z,14.10
2018-07-06T03:02:13.911Z,13.40
2018-07-06T03:04:52.393Z,13.87
2018-07-06T03:07:30.811Z,13.80
2018-07-06T03:10:09.357Z,14.17
2018-07-06T03:12:47.847Z,16.07
2018-07-06T03:15:26.393Z,14.60
2018-07-06T03:18:04.806Z,15.53
2018-07-06T03:20:43.287Z,15.57
2018-07-06T03:23:21.754Z,15.07
2018-07-06T03:26:00.075Z,14.67
2018-07-06T03:28:38.696Z,14.50
2018-07-06T03:31:17.010Z,16.07
2018-07-06T03:33:55.657Z,15.70
2018-07-06T03:36:33.968Z,18.25
2018-07-06T03:39:12.335Z,15.40
2018-07-06T03:41:50.859Z,15.70
2018-07-06T03:44:29.291Z,18.48
2018-07-06T03:47:07.859Z,14.73
2018-07-06T03:49:46.358Z,14.43
2018-07-06T03:52:24.999Z,18.70
2018-07-06T03:55:03.565Z,16.57
2018-07-06T03:57:42.131Z,15.33
2018-07-06T04:00:20.549Z,17.03
2018-07-06T04:02:59.087Z,19.77
2018-07-06T04:05:37.596Z,19.15
2018-07-06T04:08:16.035Z,14.70
2018-07-06T04:10:54.407Z,18.07
2018-07-06T04:13:32.975Z,15.70
2018-07-06T04:16:11.447Z,12.90
2018-07-06T04:18:49.840Z,17.00
2018-07-06T04:21:28.605Z,14.10
2018-07-06T04:24:07.114Z,15.70
2018-07-06T04:26:45.652Z,15.10
2018-07-06T04:29:24.146Z,15.20
2018-07-06T04:32:02.554Z,13.67
2018-07-06T04:34:41.007Z,16.90
2018-07-06T04:37:19.544Z,15.00
2018-07-06T04:39:57.951Z,14.33
2018-07-06T04:42:36.479Z,13.27
2018-07-06T04:45:14.852Z,13.87
2018-07-06T04:47:53.363Z,13.07
2018-07-06T04:50:32.011Z,13.57
2018-07-06T04:53:10.288Z,13.43
2018-07-06T04:55:48.783Z,14.27
2018-07-06T04:58:27.167Z,13.80
2018-07-06T05:01:05.715Z,14.90
2018-07-06T05:03:44.258Z,13.80
2018-07-06T05:06:22.820Z,14.33
2018-07-06T05:09:01.293Z,13.70
2018-07-06T05:11:39.654Z,14.87
2018-07-06T05:14:18.243Z,17.02
2018-07-06T05:16:56.676Z,15.10
2018-07-06T05:19:36.199Z,14.53
2018-07-06T05:22:14.763Z,15.20
2018-07-06T05:24:53.161Z,15.40
2018-07-06T05:27:31.648Z,16.47
2018-07-06T05:30:10.195Z,19.23
2018-07-06T05:32:48.728Z,16.13
2018-07-06T05:35:27.132Z,16.17
2018-07-06T05:38:05.663Z,15.30
2018-07-06T05:40:44.056Z,16.20
2018-07-06T05:43:22.527Z,14.80
2018-07-06T05:46:00.907Z,13.83
2018-07-06T05:48:39.412Z,14.63
2018-07-06T05:51:17.940Z,16.50
2018-07-06T05:53:56.549Z,15.87
2018-07-06T05:56:35.122Z,15.40
2018-07-06T05:59:13.703Z,15.67
2018-07-06T06:01:52.204Z,13.70
2018-07-06T06:04:30.624Z,15.70
2018-07-06T06:07:09.128Z,15.00
2018-07-06T06:09:35.978Z,16.23
2018-07-06T06:12:02.870Z,18.17
2018-07-06T06:14:29.731Z,17.00
2018-07-06T06:16:56.600Z,17.10
2018-07-06T06:19:23.462Z,17.60
2018-07-06T06:21:50.320Z,19.40
2018-07-06T06:24:17.175Z,17.37
2018-07-06T06:26:44.027Z,17.60
2018-07-06T06:29:10.887Z,18.47
2018-07-06T06:31:37.771Z,20.13
2018-07-06T06:34:04.627Z,16.90
2018-07-06T06:36:32.110Z,19.03
2018-07-06T06:38:58.990Z,18.67
2018-07-06T06:41:25.859Z,18.37
2018-07-06T06:43:52.732Z,18.40
2018-07-06T06:46:19.591Z,17.53
2018-07-06T06:48:46.573Z,16.27
2018-07-06T06:51:13.446Z,16.07
2018-07-06T06:53:40.595Z,15.00
2018-07-06T06:56:08.902Z,13.27
2018-07-06T06:58:41.259Z,14.20
2018-07-06T07:01:09.210Z,14.33
2018-07-06T07:03:36.185Z,15.97
2018-07-06T07:06:03.061Z,15.83
2018-07-06T07:08:29.935Z,16.60
2018-07-06T07:10:56.995Z,14.73
2018-07-06T07:13:23.854Z,14.83
2018-07-06T07:15:50.723Z,14.90
2018-07-06T07:18:17.663Z,12.70
2018-07-06T07:20:44.583Z,13.40
2018-07-06T07:23:11.671Z,13.80
2018-07-06T07:25:38.544Z,14.50
2018-07-06T07:28:05.427Z,13.60
2018-07-06T07:30:32.298Z,13.20
2018-07-06T07:32:59.218Z,16.60
2018-07-06T07:35:26.121Z,14.03
2018-07-06T07:37:53.120Z,15.20
2018-07-06T07:40:19.995Z,13.10
2018-07-06T07:42:46.864Z,15.93
2018-07-06T07:45:13.743Z,13.97
2018-07-06T07:47:40.619Z,14.40
2018-07-06T07:50:07.478Z,14.70
2018-07-06T07:52:45.930Z,13.43
2018-07-06T07:55:12.837Z,14.90
2018-07-06T07:57:39.671Z,15.93
2018-07-06T08:00:06.538Z,15.43
2018-07-06T08:02:33.491Z,15.47
2018-07-06T08:05:00.351Z,14.37
2018-07-06T08:07:27.211Z,13.80
2018-07-06T08:09:54.072Z,15.67
2018-07-06T08:12:20.947Z,14.17
2018-07-06T08:14:48.079Z,13.73
2018-07-06T08:17:14.944Z,15.00
2018-07-06T08:19:41.828Z,16.17
2018-07-06T08:22:08.688Z,14.70
2018-07-06T08:24:35.564Z,12.67
2018-07-06T08:27:02.485Z,13.30
2018-07-06T08:29:29.401Z,12.57
2018-07-06T08:31:56.320Z,10.87
2018-07-06T08:34:34.681Z,11.60
2018-07-06T08:37:33.259Z,11.17
2018-07-06T08:40:00.203Z,11.83
2018-07-06T08:42:30.196Z,12.13
2018-07-06T08:44:57.908Z,10.77
2018-07-06T08:47:24.811Z,11.43
2018-07-06T08:49:52.147Z,10.57
2018-07-06T08:52:19.295Z,11.37
2018-07-06T08:54:46.431Z,11.27
2018-07-06T08:57:13.435Z,7.90
2018-07-06T08:59:40.332Z,5.93
2018-07-06T09:02:07.228Z,4.90
2018-07-06T09:04:34.179Z,5.30
2018-07-06T09:07:00.950Z,5.77
2018-07-06T09:09:28.135Z,4.23
2018-07-06T09:11:54.963Z,4.30
2018-07-06T09:14:22.066Z,3.83
2018-07-06T09:16:49.265Z,4.20
2018-07-06T09:19:16.165Z,3.30
2018-07-06T09:21:43.031Z,3.60
2018-07-06T09:24:09.902Z,3.10
2018-07-06T09:26:36.779Z,3.27
2018-07-06T09:29:03.676Z,3.27
2018-07-06T09:31:30.563Z,2.58
2018-07-06T09:33:57.447Z,3.53
2018-07-06T09:36:24.336Z,3.13
2018-07-06T09:38:51.248Z,2.70
2018-07-06T09:41:18.210Z,3.80
2018-07-06T09:43:45.748Z,3.53
2018-07-06T09:46:12.619Z,3.00
2018-07-06T09:48:40.043Z,3.50
2018-07-06T09:51:06.911Z,3.33
2018-07-06T09:53:33.792Z,3.17
2018-07-06T09:56:00.676Z,3.30
2018-07-06T09:58:27.598Z,3.00
2018-07-06T10:00:58.783Z,3.20
2018-07-06T10:03:26.231Z,3.30
2018-07-06T10:05:53.221Z,3.50
2018-07-06T10:08:20.148Z,3.13
2018-07-06T10:10:47.015Z,3.17
2018-07-06T10:13:13.954Z,3.12
2018-07-06T10:15:40.807Z,3.00
2018-07-06T10:18:07.736Z,3.10
2018-07-06T10:20:34.584Z,2.93
2018-07-06T10:23:01.488Z,3.30
2018-07-06T10:25:28.351Z,2.80
2018-07-06T10:28:04.427Z,2.83
2018-07-06T10:30:39.627Z,3.00
2018-07-06T10:33:07.228Z,3.20
2018-07-06T10:35:34.080Z,2.67
2018-07-06T10:38:00.962Z,2.30
2018-07-06T10:40:27.875Z,2.67
2018-07-06T10:42:54.743Z,2.43
2018-07-06T10:45:21.642Z,2.33
2018-07-06T10:47:48.511Z,2.70
2018-07-06T10:50:15.379Z,2.50
2018-07-06T10:52:42.244Z,2.80
2018-07-06T10:55:09.135Z,2.47
2018-07-06T10:57:36.011Z,2.23
2018-07-06T11:00:02.915Z,2.60
2018-07-06T11:02:29.827Z,2.50
2018-07-06T11:04:56.782Z,2.40
2018-07-06T11:07:23.634Z,2.00
2018-07-06T11:09:50.544Z,2.00
2018-07-06T11:12:17.426Z,2.23
2018-07-06T11:14:44.335Z,2.40
2018-07-06T11:17:11.199Z,2.90
2018-07-06T11:19:38.115Z,2.43
2018-07-06T11:22:04.967Z,2.43
2018-07-06T11:24:31.833Z,2.13
2018-07-06T11:26:58.691Z,2.10
2018-07-06T11:29:25.627Z,2.20
2018-07-06T11:31:52.530Z,2.30
2018-07-06T11:34:19.387Z,2.20
2018-07-06T11:36:46.249Z,1.80
2018-07-06T11:39:13.142Z,2.10
2018-07-06T11:41:40.000Z,2.20
2018-07-06T11:44:06.983Z,1.80
2018-07-06T11:46:33.844Z,2.17
2018-07-06T11:49:00.731Z,2.30
2018-07-06T11:51:28.707Z,1.97
2018-07-06T11:53:55.618Z,1.77
2018-07-06T11:56:22.463Z,1.80
2018-07-06T11:58:49.324Z,1.80
2018-07-06T12:01:16.195Z,1.77
2018-07-06T12:03:43.092Z,1.60
2018-07-06T12:06:10.031Z,1.57
2018-07-06T12:08:36.903Z,1.60
2018-07-06T12:11:04.431Z,1.60
2018-07-06T12:13:31.315Z,1.60
2018-07-06T12:15:58.436Z,1.50
2018-07-06T12:18:25.360Z,1.60
2018-07-06T12:20:52.237Z,1.30
2018-07-06T12:23:19.090Z,1.10
2018-07-06T12:25:47.040Z,1.20
2018-07-06T12:28:13.905Z,1.20
2018-07-06T12:31:27.344Z,1.20
2018-07-06T12:33:54.198Z,1.30
2018-07-06T12:36:21.114Z,1.10
2018-07-06T12:38:48.277Z,1.37
2018-07-06T12:41:15.173Z,1.33
2018-07-06T12:43:42.051Z,1.10
2018-07-06T12:46:08.939Z,1.30
2018-07-06T12:48:35.828Z,1.10
2018-07-06T12:51:02.698Z,1.20
2018-07-06T12:53:29.596Z,1.30
2018-07-06T12:55:56.692Z,1.10
2018-07-06T12:58:23.644Z,1.30
2018-07-06T13:00:50.476Z,1.23
2018-07-06T13:03:17.344Z,1.10
2018-07-06T13:05:44.239Z,1.20
2018-07-06T13:08:11.108Z,1.07
2018-07-06T13:10:38.673Z,1.10
2018-07-06T13:13:05.543Z,1.30
2018-07-06T13:15:32.407Z,1.07
2018-07-06T13:17:59.318Z,1.40
2018-07-06T13:20:26.185Z,1.03
2018-07-06T13:22:53.092Z,1.10
2018-07-06T13:25:20.045Z,1.30
2018-07-06T13:27:46.915Z,1.37
2018-07-06T13:30:14.357Z,1.27
2018-07-06T13:32:41.224Z,1.17
2018-07-06T13:35:08.179Z,1.50
2018-07-06T13:37:35.039Z,1.20
2018-07-06T13:40:01.922Z,1.17
2018-07-06T13:42:28.819Z,1.60
2018-07-06T13:44:55.676Z,1.30
2018-07-06T13:47:22.526Z,1.40
2018-07-06T13:49:49.379Z,1.17
2018-07-06T13:52:16.234Z,1.30
2018-07-06T13:54:43.131Z,1.40
2018-07-06T13:57:11.219Z,1.30
2018-07-06T13:59:38.095Z,1.20
2018-07-06T14:02:05.071Z,1.20
2018-07-06T14:04:31.947Z,1.30
2018-07-06T14:07:01.845Z,1.40
2018-07-06T14:09:28.713Z,1.30
2018-07-06T14:11:55.718Z,1.40
2018-07-06T14:14:25.599Z,1.50
2018-07-06T14:16:52.475Z,1.30
2018-07-06T14:19:19.342Z,1.33
2018-07-06T14:21:46.303Z,1.40
2018-07-06T14:24:13.371Z,1.40
2018-07-06T14:26:40.315Z,2.13
2018-07-06T14:29:07.175Z,1.42
2018-07-06T14:31:36.052Z,1.40
2018-07-06T14:34:06.196Z,1.50
2018-07-06T14:36:36.071Z,1.50
2018-07-06T14:39:04.208Z,1.63
2018-07-06T14:41:31.056Z,1.50
2018-07-06T14:43:57.923Z,1.80
2018-07-06T14:46:24.832Z,1.77
2018-07-06T14:48:51.732Z,1.80
2018-07-06T14:51:18.648Z,1.27
2018-07-06T14:53:45.505Z,1.53
2018-07-06T14:56:12.379Z,2.00
2018-07-06T14:58:39.239Z,2.00
2018-07-06T15:01:09.111Z,1.80
2018-07-06T15:03:35.975Z,1.50
2018-07-06T15:06:03.841Z,1.90
2018-07-06T15:08:30.700Z,1.80
2018-07-06T15:10:57.607Z,2.10
2018-07-06T15:13:25.570Z,1.80
2018-07-06T15:15:53.997Z,1.77
2018-07-06T15:18:20.868Z,1.90
2018-07-06T15:20:47.719Z,2.00
2018-07-06T15:23:14.600Z,1.50
2018-07-06T15:25:41.463Z,1.83
2018-07-06T15:28:08.331Z,1.60
2018-07-06T15:30:35.190Z,1.53
2018-07-06T15:33:02.067Z,1.60
2018-07-06T15:35:28.927Z,1.70
2018-07-06T15:37:55.799Z,1.30
2018-07-06T15:40:22.812Z,1.60
2018-07-06T15:42:53.205Z,1.57
2018-07-06T15:45:20.136Z,1.65
2018-07-06T15:47:47.039Z,1.50
2018-07-06T15:50:13.948Z,1.60
2018-07-06T15:52:40.791Z,1.30
2018-07-06T15:55:07.696Z,1.72
2018-07-06T15:57:34.642Z,1.50
2018-07-06T16:00:01.476Z,2.17
2018-07-06T16:02:28.336Z,2.20
2018-07-06T16:04:55.239Z,2.43
2018-07-06T16:07:22.155Z,2.70
2018-07-06T16:09:49.040Z,2.90
2018-07-06T16:12:15.903Z,2.50
2018-07-06T16:14:42.810Z,2.57
2018-07-06T16:17:09.672Z,2.90
2018-07-06T16:19:36.761Z,2.80
2018-07-06T16:22:03.631Z,2.80
2018-07-06T16:24:30.584Z,3.13
2018-07-06T16:26:57.505Z,2.63
2018-07-06T16:29:24.414Z,2.70
2018-07-06T16:31:51.354Z,3.17
2018-07-06T16:34:18.230Z,3.10
2018-07-06T16:36:45.116Z,3.50
2018-07-06T16:39:12.135Z,3.70
2018-07-06T16:41:40.031Z,3.83
2018-07-06T16:44:07.021Z,3.67
2018-07-06T16:46:33.864Z,3.90
2018-07-06T16:49:01.058Z,3.77
2018-07-06T16:51:27.943Z,3.73
2018-07-06T16:53:54.799Z,3.30
2018-07-06T16:56:21.668Z,4.37
2018-07-06T16:58:48.609Z,4.03
2018-07-06T17:01:15.501Z,3.83
2018-07-06T17:03:42.415Z,4.20
2018-07-06T17:06:09.283Z,3.70
2018-07-06T17:08:37.031Z,4.17
2018-07-06T17:11:03.948Z,3.50
2018-07-06T17:13:30.813Z,3.13
2018-07-06T17:15:57.715Z,2.87
2018-07-06T17:18:24.580Z,3.33
2018-07-06T17:20:51.439Z,2.97
2018-07-06T17:23:19.118Z,3.10
2018-07-06T17:25:45.991Z,3.53
2018-07-06T17:28:12.912Z,4.17
2018-07-06T17:30:39.795Z,3.73
2018-07-06T17:33:06.719Z,6.10
2018-07-06T17:35:33.578Z,6.50
2018-07-06T17:38:00.473Z,8.30
2018-07-06T17:40:33.603Z,8.00
2018-07-06T17:43:00.475Z,7.80
2018-07-06T17:45:29.852Z,7.50
2018-07-06T17:47:57.620Z,7.30
2018-07-06T17:50:24.557Z,6.57
2018-07-06T17:52:51.360Z,6.27
2018-07-06T17:55:18.223Z,6.57
2018-07-06T17:57:45.201Z,5.83
2018-07-06T18:00:12.076Z,6.27
2018-07-06T18:02:38.932Z,6.70
2018-07-06T18:05:05.794Z,6.65
2018-07-06T18:07:32.897Z,6.10
2018-07-06T18:09:59.715Z,5.80
2018-07-06T18:12:26.615Z,6.53
2018-07-06T18:14:53.527Z,6.80
2018-07-06T18:17:20.432Z,7.10
2018-07-06T18:19:47.339Z,7.10
2018-07-06T18:22:14.245Z,7.03
2018-07-06T18:24:41.148Z,7.20
2018-07-06T18:27:08.023Z,7.00
2018-07-06T18:29:34.948Z,7.67
2018-07-06T18:32:01.857Z,7.17
2018-07-06T18:34:28.719Z,7.40
2018-07-06T18:36:55.597Z,8.73
2018-07-06T18:39:22.496Z,7.70
2018-07-06T18:41:49.408Z,7.80
2018-07-06T18:44:16.282Z,8.30
2018-07-06T18:46:44.028Z,8.00
2018-07-06T18:49:10.898Z,7.80
2018-07-06T18:51:37.791Z,8.67
2018-07-06T18:54:04.658Z,9.10
2018-07-06T18:56:31.543Z,7.77
2018-07-06T18:58:58.410Z,8.53
2018-07-06T19:01:25.319Z,9.00
2018-07-06T19:03:52.146Z,9.23
2018-07-06T19:06:19.020Z,9.50
2018-07-06T19:08:46.020Z,9.60
2018-07-06T19:11:12.883Z,9.57
2018-07-06T19:13:39.743Z,10.50
2018-07-06T19:16:06.621Z,9.40
2018-07-06T19:18:33.477Z,11.13
2018-07-06T19:21:00.407Z,11.23
2018-07-06T19:23:27.307Z,11.70
2018-07-06T19:25:54.303Z,12.20
2018-07-06T19:28:21.185Z,12.60
2018-07-06T19:30:54.267Z,12.53
2018-07-06T19:33:21.095Z,13.30
2018-07-06T19:35:48.516Z,13.13
2018-07-06T19:38:15.374Z,13.43
2018-07-06T19:40:42.235Z,14.10
2018-07-06T19:43:16.620Z,14.47
2018-07-06T19:45:43.492Z,14.10
2018-07-06T19:48:10.412Z,13.90
2018-07-06T19:50:37.268Z,14.40
2018-07-06T19:53:04.211Z,14.60
2018-07-06T19:55:31.652Z,14.67
2018-07-06T19:57:58.528Z,13.63
2018-07-06T20:00:25.463Z,13.57
2018-07-06T20:02:52.569Z,14.33
2018-07-06T20:05:19.483Z,13.60
2018-07-06T20:07:46.379Z,14.47
2018-07-06T20:10:13.211Z,16.43
2018-07-06T20:12:43.091Z,16.00
2018-07-06T20:15:09.980Z,15.30
2018-07-06T20:17:36.823Z,15.53
2018-07-06T20:20:05.933Z,15.33
2018-07-06T20:22:32.775Z,16.43
2018-07-06T20:24:59.645Z,15.80
2018-07-06T20:27:26.511Z,17.85
2018-07-06T20:29:53.371Z,18.37
2018-07-06T20:32:20.223Z,17.50
2018-07-06T20:34:47.097Z,16.53
2018-07-06T20:37:13.963Z,18.70
2018-07-06T20:39:40.851Z,17.80
2018-07-06T20:42:07.771Z,17.20
2018-07-06T20:44:34.626Z,18.07
2018-07-06T20:47:01.524Z,18.50
2018-07-06T20:49:28.383Z,18.40
2018-07-06T20:51:55.238Z,18.37
2018-07-06T20:54:22.132Z,18.90
2018-07-06T20:56:49.000Z,17.50
2018-07-06T20:59:15.863Z,18.90
2018-07-06T21:01:42.719Z,17.87
2018-07-06T21:04:09.716Z,17.67
2018-07-06T21:06:37.218Z,17.97
2018-07-06T21:09:05.371Z,16.03
2018-07-06T21:11:32.253Z,18.60
2018-07-06T21:13:59.106Z,18.07
2018-07-06T21:16:26.012Z,18.00
2018-07-06T21:18:53.119Z,17.33
2018-07-06T21:21:19.970Z,18.23
2018-07-06T21:23:46.817Z,17.50
2018-07-06T21:26:13.667Z,18.52
2018-07-06T21:28:42.160Z,18.53
2018-07-06T21:31:09.003Z,17.70
2018-07-06T21:33:35.850Z,18.00
2018-07-06T21:36:02.904Z,17.60
2018-07-06T21:38:29.772Z,18.33
2018-07-06T21:40:56.630Z,19.07
2018-07-06T21:43:23.508Z,17.80
2018-07-06T21:45:50.359Z,18.20
2018-07-06T21:48:17.247Z,18.90
2018-07-06T21:50:44.108Z,16.63
2018-07-06T21:53:11.057Z,17.23
2018-07-06T21:55:37.843Z,18.90
2018-07-06T21:58:04.699Z,20.92
2018-07-06T22:00:37.951Z,18.17
2018-07-06T22:03:05.351Z,18.07
2018-07-06T22:05:32.220Z,17.57
2018-07-06T22:07:59.284Z,17.07
2018-07-06T22:10:26.131Z,18.47
2018-07-06T22:12:52.967Z,19.53
2018-07-06T22:15:19.852Z,18.07
2018-07-06T22:17:46.811Z,18.43
2018-07-06T22:20:13.665Z,18.37
2018-07-06T22:22:40.585Z,17.90
2018-07-06T22:25:07.391Z,18.40
2018-07-06T22:27:34.228Z,18.27
2018-07-06T22:30:01.079Z,19.80
2018-07-06T22:32:27.943Z,18.90
2018-07-06T22:34:54.766Z,18.73
2018-07-06T22:37:23.127Z,19.70
2018-07-06T22:39:54.048Z,18.37
2018-07-06T22:42:22.734Z,19.30
2018-07-06T22:44:49.632Z,20.25
2018-07-06T22:47:16.495Z,18.77
2018-07-06T22:49:43.347Z,17.77
2018-07-06T22:52:10.206Z,17.27
2018-07-06T22:54:37.103Z,17.97
2018-07-06T22:57:03.971Z,19.03
2018-07-06T22:59:30.831Z,18.27
2018-07-06T23:01:57.686Z,16.80
2018-07-06T23:04:24.557Z,17.67
2018-07-06T23:06:51.427Z,16.57
2018-07-06T23:09:18.271Z,18.33
2018-07-06T23:11:45.147Z,18.82
2018-07-06T23:14:12.000Z,16.90
2018-07-06T23:16:38.848Z,18.40
2018-07-06T23:19:05.707Z,17.80
2018-07-06T23:21:32.559Z,17.13
2018-07-06T23:23:59.432Z,18.77
2018-07-06T23:26:26.288Z,17.47
2018-07-06T23:28:53.183Z,16.10
2018-07-06T23:31:20.059Z,17.07
2018-07-06T23:33:46.919Z,17.50
2018-07-06T23:36:13.788Z,17.90
2018-07-06T23:38:40.643Z,18.03
2018-07-06T23:41:07.500Z,17.97
2018-07-06T23:43:34.364Z,17.97
2018-07-06T23:46:01.311Z,18.17
2018-07-06T23:48:28.191Z,16.83
2018-07-06T23:50:55.048Z,20.20
2018-07-06T23:53:21.891Z,19.10
2018-07-06T23:55:48.780Z,18.80
2018-07-06T23:58:15.688Z,17.60
